Portada
METAR-TAF:

METAR-TAF

Aeroports :

Meknès, Marroc

latitud: 33-53N, longitud: 005-32W, altitud: 576 m

METAR: manca

Hora: 10:34 (09:34 UTC)

Pronòstic

L'informe es va fer fa 4 hores i 34 minuts, a les 05:00 UTC
Pronòstic vàlid del 26 a les 06 UTC al 27 a les 12 UTC
Vent 6 kt del Est/Sud-Est
Visibilitat 10 km o més
sense núvols per sota de 1500 mi sense presència de cumulonimbus.
Temporalment
l' 26 a les 12 UTC al 26 a les 19 UTC
Vent 10 kt del Nord/Nord-Oest

TAF: GMFM 260500Z 2606/2712 12006KT CAVOK TEMPO 2612/2619 33010KT

Observacions i pronòstics meteorològics de més de 4000 aeroports (METAR i TAF).

Les estacions disponibles són els punts grocs i vermells al mapa.

Posi el ratolí al punt desitjat per veure el nom de l'estació.

Feu clic per veure les observacions i els pronòstics meteorològics.

Per canviar el mapa: feu clic els botons verds amb una creu de color negre per apropar; al botó verd amb un guió per allunyar la imatge; o en les fletxes verdes per a mapes adjacents.


METAR-TAF: